Time;durP1;ratioP1;P1;durP2;ratioP2;P2;SDS_P1;SDS_P2;PMS_P1;PMS_P2;Temp;Humidity;BMP_temperature;BMP_pressure;BME280_temperature;BME280_humidity;BME280_pressure;Samples;Min_cycle;Max_cycle;Signal;HPM_P1;HPM_P2
2021/10/01 00:02:15;;;;;;;2.72;1.48;;;;;;;8.76;64.04;101709.56;4918721;28;99074;-62
2021/10/01 00:04:41;;;;;;;2.05;1.10;;;;;;;8.75;64.05;101714.13;4900520;28;98318;-61
2021/10/01 00:07:08;;;;;;;2.60;1.30;;;;;;;8.74;64.30;101709.78;4912401;28;128439;-59
2021/10/01 00:09:34;;;;;;;1.60;1.10;;;;;;;8.72;63.90;101716.44;4919024;28;97865;-62
2021/10/01 00:12:00;;;;;;;2.53;1.20;;;;;;;8.70;63.84;101705.91;4918490;28;98242;-59
2021/10/01 00:14:28;;;;;;;1.77;0.90;;;;;;;8.73;64.08;101707.34;4905079;28;98314;-60
2021/10/01 00:16:54;;;;;;;3.33;1.25;;;;;;;8.78;63.91;101710.97;4900877;28;99270;-60
2021/10/01 00:19:21;;;;;;;4.03;1.20;;;;;;;8.83;64.05;101710.28;4900665;28;98065;-62
2021/10/01 00:21:47;;;;;;;2.42;1.25;;;;;;;8.90;63.81;101705.66;4918175;28;98629;-59
2021/10/01 00:24:13;;;;;;;2.55;1.23;;;;;;;8.93;63.57;101699.03;4917694;28;127834;-60
2021/10/01 00:26:40;;;;;;;3.00;1.20;;;;;;;8.93;63.52;101691.78;4918547;28;97873;-59
2021/10/01 00:29:06;;;;;;;2.47;1.15;;;;;;;8.95;63.90;101696.91;4920401;28;98089;-60
2021/10/01 00:31:33;;;;;;;1.95;1.20;;;;;;;8.98;64.01;101697.28;4921806;28;98546;-62
2021/10/01 00:34:01;;;;;;;1.42;1.00;;;;;;;9.00;63.29;101691.66;4921521;28;98676;-61
2021/10/01 00:36:28;;;;;;;2.58;1.10;;;;;;;9.01;63.86;101693.34;4921819;28;98908;-62
2021/10/01 00:38:54;;;;;;;2.35;1.15;;;;;;;9.01;63.08;101683.38;4902730;28;97946;-61
2021/10/01 00:41:20;;;;;;;1.88;0.90;;;;;;;9.01;63.39;101685.25;4921162;28;126901;-61
2021/10/01 00:43:46;;;;;;;2.25;1.00;;;;;;;9.00;63.44;101683.59;4921786;28;128090;-59
2021/10/01 00:46:12;;;;;;;1.90;1.02;;;;;;;8.99;63.26;101673.91;4921166;28;127980;-59
2021/10/01 00:48:38;;;;;;;2.13;0.90;;;;;;;8.97;63.54;101679.50;4907925;28;121485;-59
2021/10/01 00:51:04;;;;;;;3.28;1.15;;;;;;;8.94;63.50;101674.59;4907885;28;127160;-60
2021/10/01 00:53:30;;;;;;;4.22;0.90;;;;;;;8.91;63.20;101674.22;4873283;28;128367;-59
2021/10/01 00:55:56;;;;;;;3.70;1.02;;;;;;;8.90;63.36;101676.09;4872107;28;127166;-62
2021/10/01 00:58:22;;;;;;;3.58;0.90;;;;;;;8.88;63.36;101677.34;4914598;28;99411;-60
2021/10/01 01:01:09;;;;;;;2.13;0.98;;;;;;;8.86;63.64;101680.28;4902546;28;128126;-60
2021/10/01 01:04:04;;;;;;;2.75;1.20;;;;;;;8.82;63.80;101676.41;4922429;28;98906;-61
2021/10/01 01:06:56;;;;;;;2.55;0.95;;;;;;;8.78;63.03;101677.91;4917008;28;98170;-59
2021/10/01 01:09:46;;;;;;;3.03;1.00;;;;;;;8.74;63.58;101664.09;4915040;28;98181;-60
2021/10/01 01:12:50;;;;;;;2.13;0.80;;;;;;;8.71;63.68;101664.53;4921057;28;98595;-60
2021/10/01 01:15:22;;;;;;;2.58;0.93;;;;;;;8.69;63.24;101674.69;4921138;28;98983;-61
2021/10/01 01:17:57;;;;;;;;;;;;;;;8.66;62.99;101669.78;4921160;28;121750;-59
2021/10/01 01:20:47;;;;;;;1.73;0.88;;;;;;;8.63;63.05;101670.22;4919768;28;97965;-61
2021/10/01 01:24:13;;;;;;;2.28;1.00;;;;;;;8.62;63.48;101662.38;4920100;28;118086;-59
2021/10/01 01:27:11;;;;;;;1.55;0.82;;;;;;;8.58;63.13;101652.06;4889834;28;97819;-59
2021/10/01 01:30:02;;;;;;;1.83;0.82;;;;;;;8.56;63.72;101651.47;4917231;28;98269;-59
2021/10/01 01:32:29;;;;;;;2.25;0.90;;;;;;;8.52;63.46;101652.97;4917690;28;98096;-62
2021/10/01 01:35:00;;;;;;;2.38;0.80;;;;;;;8.46;63.67;101639.63;4907512;28;119515;-62
2021/10/01 01:37:35;;;;;;;2.10;1.00;;;;;;;8.47;63.56;101643.94;4903636;28;107763;-62
2021/10/01 01:40:01;;;;;;;2.00;0.82;;;;;;;8.45;63.50;101641.50;4903450;28;98422;-61
2021/10/01 01:42:27;;;;;;;2.55;0.80;;;;;;;8.44;63.24;101644.38;4902851;28;110274;-60
2021/10/01 01:44:53;;;;;;;2.40;0.80;;;;;;;8.42;63.50;101641.13;4903919;28;116013;-62
2021/10/01 01:47:19;;;;;;;2.33;0.80;;;;;;;8.40;63.69;101635.94;4897899;28;126315;-60
2021/10/01 01:49:45;;;;;;;2.60;1.02;;;;;;;8.35;63.64;101636.59;4919885;28;118170;-61
2021/10/01 01:52:11;;;;;;;1.30;0.82;;;;;;;8.35;63.58;101641.16;4901750;28;121719;-62
2021/10/01 01:54:37;;;;;;;1.42;1.00;;;;;;;8.34;63.67;101644.91;4903721;28;98374;-62
2021/10/01 01:57:04;;;;;;;3.42;0.93;;;;;;;8.31;63.97;101640.78;4915354;28;119678;-59
2021/10/01 01:59:30;;;;;;;2.72;0.73;;;;;;;8.30;64.00;101641.00;4893963;28;127749;-62
2021/10/01 02:01:56;;;;;;;2.50;1.05;;;;;;;8.29;63.74;101644.72;4900044;28;123322;-59
2021/10/01 02:04:22;;;;;;;2.78;0.90;;;;;;;8.29;63.29;101631.28;4886107;28;125980;-59
2021/10/01 02:06:49;;;;;;;3.05;0.90;;;;;;;8.28;63.65;101637.72;4902681;28;106457;-62
2021/10/01 02:09:15;;;;;;;1.30;0.60;;;;;;;8.27;64.19;101636.09;4901348;28;98732;-62
2021/10/01 02:11:42;;;;;;;2.78;0.80;;;;;;;8.23;63.79;101630.34;4909372;28;98136;-60
2021/10/01 02:14:08;;;;;;;1.45;0.85;;;;;;;8.21;63.97;101631.59;4886328;28;98581;-60
2021/10/01 02:16:34;;;;;;;2.80;0.88;;;;;;;8.19;63.94;101636.38;4902675;28;98501;-59
2021/10/01 02:19:00;;;;;;;3.47;0.80;;;;;;;8.17;63.67;101638.44;4917560;28;109944;-60
2021/10/01 02:21:26;;;;;;;2.00;0.88;;;;;;;8.13;63.78;101635.38;4909045;28;105149;-59
2021/10/01 02:23:52;;;;;;;1.85;0.70;;;;;;;8.09;63.66;101632.31;4910413;28;127786;-62
2021/10/01 02:26:35;;;;;;;2.85;1.00;;;;;;;8.03;63.85;101627.88;4908863;28;98626;-61
2021/10/01 02:29:14;;;;;;;2.30;0.82;;;;;;;8.01;63.57;101627.25;4921442;28;98562;-62
2021/10/01 02:32:10;;;;;;;1.80;0.93;;;;;;;7.95;63.86;101619.28;4900191;28;114282;-62
2021/10/01 02:34:39;;;;;;;3.30;1.30;;;;;;;7.88;63.87;101622.03;4919378;28;99043;-60
2021/10/01 02:37:07;;;;;;;3.00;1.00;;;;;;;7.82;64.01;101629.09;4918803;28;98351;-62
2021/10/01 02:39:35;;;;;;;2.10;1.10;;;;;;;7.76;63.95;101624.59;4920130;28;97998;-60
2021/10/01 02:42:02;;;;;;;2.22;1.05;;;;;;;7.72;64.36;101625.28;4911726;28;99214;-59
2021/10/01 02:44:28;;;;;;;2.38;1.08;;;;;;;7.68;64.44;101629.44;4901177;28;98210;-59
2021/10/01 02:46:54;;;;;;;2.75;0.95;;;;;;;7.63;64.56;101627.41;4911984;28;126073;-59
2021/10/01 02:49:20;;;;;;;1.67;0.77;;;;;;;7.61;64.33;101619.56;4920750;28;124573;-59
2021/10/01 02:51:58;;;;;;;1.92;0.82;;;;;;;7.60;64.09;101625.16;4916307;28;122551;-59
2021/10/01 02:54:45;;;;;;;3.25;1.08;;;;;;;7.59;64.15;101612.78;4918476;28;99180;-61
2021/10/01 02:57:15;;;;;;;2.63;0.90;;;;;;;7.57;63.99;101609.50;4917486;28;114689;-61
2021/10/01 02:59:43;;;;;;;2.08;1.00;;;;;;;7.53;64.05;101602.94;4896735;28;98864;-59
2021/10/01 03:02:09;;;;;;;2.20;0.82;;;;;;;7.46;64.08;101608.34;4911447;28;114076;-59
2021/10/01 03:04:36;;;;;;;2.13;0.90;;;;;;;7.40;64.02;101611.09;4917833;28;126894;-59
2021/10/01 03:07:04;;;;;;;4.03;1.10;;;;;;;7.36;64.32;101608.03;4911647;28;104544;-59
2021/10/01 03:09:30;;;;;;;2.05;0.90;;;;;;;7.33;64.22;101605.78;4901037;28;98889;-62
2021/10/01 03:11:57;;;;;;;2.00;1.00;;;;;;;7.28;64.51;101613.66;4892156;28;121569;-59
2021/10/01 03:14:23;;;;;;;1.80;0.77;;;;;;;7.20;64.36;101604.00;4917623;28;127364;-62
2021/10/01 03:16:50;;;;;;;4.03;1.02;;;;;;;7.17;64.15;101611.66;4913813;28;120337;-59
2021/10/01 03:19:17;;;;;;;3.53;1.15;;;;;;;7.13;64.14;101612.09;4920472;28;97837;-59
2021/10/01 03:21:43;;;;;;;2.08;1.10;;;;;;;7.11;64.25;101611.50;4901039;28;98111;-62
2021/10/01 03:24:09;;;;;;;1.90;1.08;;;;;;;7.07;64.39;101606.78;4902741;28;98517;-62
2021/10/01 03:26:35;;;;;;;1.73;0.93;;;;;;;7.06;64.80;101611.31;4916257;28;125749;-59
2021/10/01 03:29:02;;;;;;;5.18;1.10;;;;;;;7.04;65.01;101605.38;4919479;28;128319;-59
2021/10/01 03:31:28;;;;;;;3.35;1.02;;;;;;;7.04;64.22;101612.59;4901719;28;99394;-60
2021/10/01 03:33:55;;;;;;;2.38;1.30;;;;;;;7.05;64.37;101609.69;4880869;28;127974;-62
2021/10/01 03:36:22;;;;;;;2.10;1.20;;;;;;;7.04;64.68;101605.38;4904161;28;127645;-60
2021/10/01 03:38:48;;;;;;;2.25;1.40;;;;;;;7.02;64.41;101598.56;4901453;28;98590;-60
2021/10/01 03:41:15;;;;;;;2.53;1.10;;;;;;;7.01;64.99;101608.47;4911707;28;123823;-60
2021/10/01 03:43:41;;;;;;;2.03;1.20;;;;;;;7.00;64.72;101604.16;4907112;28;99056;-62
2021/10/01 03:46:07;;;;;;;2.60;1.10;;;;;;;6.97;64.60;101598.41;4918744;28;114541;-60
2021/10/01 03:48:33;;;;;;;3.42;1.20;;;;;;;6.98;65.02;101600.84;4917520;28;125807;-61
2021/10/01 03:50:59;;;;;;;2.25;0.93;;;;;;;6.99;65.12;101599.81;4907605;28;122928;-62
2021/10/01 03:53:25;;;;;;;2.17;1.10;;;;;;;6.99;65.19;101593.63;4913274;28;127081;-60
2021/10/01 03:55:52;;;;;;;1.70;1.10;;;;;;;7.00;65.23;101601.47;4921581;28;98637;-60
2021/10/01 03:58:18;;;;;;;2.75;1.10;;;;;;;7.01;64.58;101596.94;4920265;28;129394;-60
2021/10/01 04:00:45;;;;;;;1.95;1.13;;;;;;;7.01;64.78;101591.56;4904586;28;122174;-60
2021/10/01 04:03:12;;;;;;;2.65;1.10;;;;;;;6.99;64.76;101588.25;4913531;28;99121;-62
2021/10/01 04:05:39;;;;;;;2.58;1.08;;;;;;;7.00;64.68;101596.09;4904781;28;98537;-60
2021/10/01 04:08:11;;;;;;;2.75;1.10;;;;;;;6.97;64.51;101590.34;4923032;28;100539;-60
2021/10/01 04:10:38;;;;;;;1.95;1.00;;;;;;;6.98;64.60;101586.63;4923075;28;97752;-62
2021/10/01 04:13:06;;;;;;;2.30;1.30;;;;;;;6.94;64.71;101588.91;4916712;28;98729;-62
2021/10/01 04:15:33;;;;;;;3.63;1.20;;;;;;;6.92;64.95;101584.78;4904536;28;98581;-61
2021/10/01 04:17:59;;;;;;;2.75;1.17;;;;;;;6.92;65.20;101579.44;4918085;28;115397;-62
2021/10/01 04:20:25;;;;;;;3.10;1.00;;;;;;;6.91;64.79;101583.97;4923227;28;97939;-62
2021/10/01 04:22:51;;;;;;;2.30;1.00;;;;;;;6.89;65.04;101575.34;4920621;28;98171;-60
2021/10/01 04:25:17;;;;;;;2.75;1.20;;;;;;;6.91;65.50;101577.78;4902519;28;128070;-61
2021/10/01 04:27:43;;;;;;;2.38;0.80;;;;;;;6.89;65.01;101575.34;4919974;28;115447;-62
2021/10/01 04:30:10;;;;;;;2.08;0.90;;;;;;;6.88;65.01;101576.38;4922947;28;106197;-62
2021/10/01 04:32:39;;;;;;;2.53;1.13;;;;;;;6.85;65.08;101566.91;4921166;28;98975;-60
2021/10/01 04:35:08;;;;;;;3.35;1.10;;;;;;;6.84;65.34;101564.47;4922746;28;98945;-62
2021/10/01 04:37:34;;;;;;;1.23;0.65;;;;;;;6.83;64.80;101560.13;4921874;28;98264;-62
2021/10/01 04:40:01;;;;;;;1.70;1.00;;;;;;;6.83;65.26;101554.75;4921921;28;121408;-60
2021/10/01 04:42:27;;;;;;;2.33;1.20;;;;;;;6.82;65.53;101558.47;4919738;28;98281;-62
2021/10/01 04:44:53;;;;;;;1.83;1.05;;;;;;;6.81;65.33;101557.66;4902379;28;119265;-62
2021/10/01 04:47:19;;;;;;;1.98;0.95;;;;;;;6.79;65.56;101551.69;4917405;28;100807;-60
2021/10/01 04:49:45;;;;;;;1.67;0.98;;;;;;;6.78;65.11;101550.03;4916848;28;97865;-62
2021/10/01 04:52:11;;;;;;;3.15;1.05;;;;;;;6.79;65.38;101558.91;4901965;28;127892;-60
2021/10/01 04:54:38;;;;;;;2.50;0.85;;;;;;;6.79;65.29;101554.34;4920332;28;98555;-62
2021/10/01 04:57:04;;;;;;;1.67;0.80;;;;;;;6.80;65.62;101555.22;4921522;28;98566;-62
2021/10/01 04:59:30;;;;;;;2.45;1.27;;;;;;;6.79;65.03;101558.91;4922370;28;98028;-59
2021/10/01 05:01:56;;;;;;;2.80;1.83;;;;;;;6.76;65.09;101556.66;4920781;28;128332;-63
2021/10/01 05:04:23;;;;;;;4.68;2.17;;;;;;;6.78;65.52;101558.09;4910038;28;98665;-60
2021/10/01 05:06:49;;;;;;;3.92;1.95;;;;;;;6.83;65.34;101557.44;4913824;28;98039;-62
2021/10/01 05:09:15;;;;;;;3.10;1.92;;;;;;;6.85;64.89;101558.06;4923033;28;97935;-62
2021/10/01 05:11:41;;;;;;;4.47;2.22;;;;;;;6.86;64.97;101560.50;4920450;28;128762;-60
2021/10/01 05:14:07;;;;;;;3.30;1.77;;;;;;;6.86;64.89;101557.81;4906748;28;127283;-60
2021/10/01 05:16:33;;;;;;;3.55;1.70;;;;;;;6.87;64.81;101555.97;4921209;28;126282;-60
2021/10/01 05:18:59;;;;;;;2.70;1.50;;;;;;;6.86;65.16;101557.81;4920946;28;113174;-60
2021/10/01 05:21:26;;;;;;;3.50;1.48;;;;;;;6.89;65.04;101549.34;4919373;28;98749;-60
2021/10/01 05:23:52;;;;;;;2.55;1.48;;;;;;;6.90;65.11;101552.84;4919548;28;98024;-62
2021/10/01 05:26:18;;;;;;;2.45;1.40;;;;;;;6.95;64.44;101558.38;4921438;28;98102;-60
2021/10/01 05:28:44;;;;;;;2.90;1.20;;;;;;;6.99;65.02;101551.53;4920470;28;97953;-60
2021/10/01 05:31:10;;;;;;;5.00;1.20;;;;;;;7.04;65.03;101556.28;4911594;28;126631;-62
2021/10/01 05:33:36;;;;;;;3.85;1.27;;;;;;;7.05;64.99;101549.88;4909349;28;123367;-60
2021/10/01 05:36:02;;;;;;;1.95;1.05;;;;;;;7.08;65.15;101550.25;4917229;28;128095;-62
2021/10/01 05:38:30;;;;;;;2.42;1.10;;;;;;;7.14;65.22;101552.06;4917515;28;98018;-60
2021/10/01 05:40:56;;;;;;;3.20;1.23;;;;;;;7.20;64.31;101547.69;4918580;28;99276;-60
2021/10/01 05:43:25;;;;;;;3.55;1.13;;;;;;;7.25;65.03;101553.22;4916673;28;127333;-61
2021/10/01 05:45:57;;;;;;;3.63;1.25;;;;;;;7.30;64.65;101544.50;4910991;28;98190;-62
2021/10/01 05:48:24;;;;;;;2.67;1.02;;;;;;;7.38;64.86;101552.28;4917888;28;98342;-62
2021/10/01 05:50:58;;;;;;;3.25;1.30;;;;;;;7.46;64.70;101551.19;4917836;28;98409;-60
2021/10/01 05:56:11;;;;;;;3.85;1.23;;;;;;;7.59;64.42;101553.75;4905827;28;98161;-60
2021/10/01 05:58:38;;;;;;;2.60;1.00;;;;;;;7.66;64.29;101549.13;4917890;28;122837;-60
2021/10/01 06:01:05;;;;;;;3.28;1.10;;;;;;;7.74;64.39;101554.22;4883875;28;100027;-60
2021/10/01 06:03:31;;;;;;;2.70;1.17;;;;;;;7.80;64.40;101547.97;4915467;28;122070;-62
2021/10/01 06:05:57;;;;;;;2.80;1.00;;;;;;;7.87;64.31;101542.53;4915620;28;126152;-62
2021/10/01 06:08:23;;;;;;;2.22;1.02;;;;;;;7.95;64.33;101552.97;4916623;28;117312;-62
2021/10/01 06:10:49;;;;;;;1.77;1.00;;;;;;;7.99;64.01;101548.78;4917580;28;97904;-62
2021/10/01 06:13:15;;;;;;;3.22;1.08;;;;;;;8.03;64.38;101543.78;4917165;28;101455;-60
2021/10/01 06:15:42;;;;;;;2.55;1.00;;;;;;;8.09;64.78;101546.38;4910393;28;106339;-62
2021/10/01 06:18:08;;;;;;;2.83;1.17;;;;;;;8.13;64.63;101544.06;4914789;28;111066;-61
2021/10/01 06:20:34;;;;;;;3.05;1.00;;;;;;;8.19;64.58;101555.78;4916800;28;128012;-60
2021/10/01 06:23:00;;;;;;;2.28;0.98;;;;;;;8.22;64.24;101545.44;4917197;28;127948;-60
2021/10/01 06:25:26;;;;;;;3.22;0.90;;;;;;;8.27;64.33;101536.69;4916257;28;99220;-60
2021/10/01 06:27:52;;;;;;;4.60;1.05;;;;;;;8.33;64.27;101549.19;4914898;28;104449;-62
2021/10/01 06:30:18;;;;;;;2.90;1.13;;;;;;;8.38;64.61;101545.88;4913494;28;128004;-60
2021/10/01 06:32:45;;;;;;;2.95;1.17;;;;;;;8.46;64.50;101545.56;4917511;28;98145;-62
2021/10/01 06:35:11;;;;;;;2.17;0.85;;;;;;;8.54;64.61;101546.06;4912078;28;98473;-60
2021/10/01 06:37:37;;;;;;;3.13;0.90;;;;;;;8.63;64.95;101543.06;4916792;28;97863;-62
2021/10/01 06:40:05;;;;;;;3.50;1.27;;;;;;;8.71;64.48;101537.38;4910217;28;97879;-62
2021/10/01 06:42:33;;;;;;;2.38;1.23;;;;;;;8.81;64.46;101535.78;4917511;28;99117;-60
2021/10/01 06:45:02;;;;;;;2.65;0.88;;;;;;;8.91;64.36;101540.56;4917562;28;97737;-60
2021/10/01 06:47:50;;;;;;;1.92;0.90;;;;;;;9.00;64.24;101538.38;4918190;28;98039;-60
2021/10/01 06:50:33;;;;;;;2.97;1.30;;;;;;;9.07;64.57;101533.72;4916659;28;98575;-60
2021/10/01 07:21:14;;;;;;;2.75;1.08;;;;;;;9.40;63.53;101535.06;4916703;28;97871;-60
2021/10/01 07:36:50;;;;;;;2.53;0.60;;;;;;;11.49;58.91;101515.59;4913070;28;98366;-62
2021/10/01 08:20:26;;;;;;;2.50;0.47;;;;;;;24.34;36.10;101475.81;4913038;28;98209;-63
2021/10/01 08:22:52;;;;;;;5.38;0.68;;;;;;;28.06;30.99;101498.13;4897449;28;117540;-62
2021/10/01 08:25:18;;;;;;;1.30;0.30;;;;;;;30.38;28.08;101505.06;4913844;28;123636;-59
2021/10/01 08:27:44;;;;;;;1.10;0.35;;;;;;;31.97;26.20;101509.81;4914589;28;128181;-61
2021/10/01 08:30:11;;;;;;;2.55;0.38;;;;;;;33.81;24.45;101501.47;4914747;28;127717;-60
2021/10/01 08:32:37;;;;;;;1.48;0.50;;;;;;;35.03;22.66;101496.19;4915431;28;113346;-61
2021/10/01 08:35:05;;;;;;;0.82;0.30;;;;;;;35.86;21.40;101485.84;4916650;28;97697;-60
2021/10/01 08:37:31;;;;;;;0.95;0.30;;;;;;;36.40;20.81;101481.66;4909957;28;117972;-62
2021/10/01 08:39:57;;;;;;;1.20;0.40;;;;;;;37.23;20.46;101473.63;4914463;28;128150;-60
2021/10/01 08:42:23;;;;;;;2.17;0.47;;;;;;;38.52;19.40;101471.94;4916902;28;127773;-62
2021/10/01 08:44:49;;;;;;;1.58;0.40;;;;;;;38.20;19.04;101456.53;4916903;28;123810;-61
2021/10/01 08:47:16;;;;;;;0.90;0.30;;;;;;;37.75;18.89;101444.97;4914888;28;127892;-60
2021/10/01 08:49:45;;;;;;;1.75;0.50;;;;;;;38.78;18.25;101445.59;4916476;28;117985;-61
2021/10/01 08:52:11;;;;;;;1.40;0.40;;;;;;;39.55;17.54;101445.28;4900852;28;115949;-61
2021/10/01 08:54:38;;;;;;;1.55;0.40;;;;;;;40.31;16.87;101433.44;4916393;28;122935;-60
2021/10/01 08:57:04;;;;;;;4.30;0.40;;;;;;;40.30;16.93;101427.00;4910134;28;119303;-59
2021/10/01 08:59:30;;;;;;;1.63;0.30;;;;;;;40.35;16.33;101423.59;4911549;28;127925;-61
2021/10/01 09:01:56;;;;;;;0.82;0.30;;;;;;;39.94;16.70;101421.63;4916075;28;127472;-61
2021/10/01 09:04:22;;;;;;;1.92;0.28;;;;;;;39.96;15.86;101413.47;4917927;28;123003;-60
2021/10/01 09:06:49;;;;;;;1.23;0.32;;;;;;;39.06;16.27;101398.22;4918569;28;98606;-63
2021/10/01 09:09:15;;;;;;;1.42;0.30;;;;;;;37.10;17.62;101394.75;4911906;28;99101;-61
2021/10/01 09:11:46;;;;;;;1.10;0.30;;;;;;;36.41;18.27;101382.22;4918518;28;97948;-62
2021/10/01 09:14:14;;;;;;;1.67;0.45;;;;;;;36.78;17.89;101384.03;4918838;28;97823;-62
2021/10/01 09:16:41;;;;;;;1.85;0.40;;;;;;;36.54;18.13;101381.22;4917866;28;99007;-60
2021/10/01 09:19:08;;;;;;;1.83;0.30;;;;;;;36.88;17.66;101383.09;4913367;28;118254;-60
2021/10/01 09:22:00;;;;;;;1.10;0.38;;;;;;;38.45;17.11;101377.19;4911619;28;98232;-60
2021/10/01 09:24:26;;;;;;;1.35;0.38;;;;;;;37.14;16.75;101378.66;4913100;28;122584;-60
2021/10/01 09:26:57;;;;;;;2.15;0.30;;;;;;;36.11;17.90;101370.59;4918735;28;98181;-60
2021/10/01 09:29:32;;;;;;;1.98;0.30;;;;;;;34.77;19.51;101374.38;4914727;28;115938;-62
2021/10/01 09:31:59;;;;;;;3.42;0.38;;;;;;;33.24;20.10;101359.84;4918017;28;98445;-61
2021/10/01 09:34:25;;;;;;;1.23;0.30;;;;;;;31.38;21.49;101361.38;4917426;28;98082;-61
2021/10/01 09:37:15;;;;;;;1.25;0.30;;;;;;;29.77;22.88;101350.59;4918988;28;98171;-60
2021/10/01 09:39:45;;;;;;;2.13;0.43;;;;;;;28.62;23.81;101350.78;4918465;28;98740;-60
2021/10/01 09:42:28;;;;;;;1.63;0.40;;;;;;;28.04;25.32;101345.31;4918804;28;97936;-62
2021/10/01 09:44:59;;;;;;;1.75;0.40;;;;;;;27.42;25.38;101345.16;4919436;28;98174;-62
2021/10/01 09:47:46;;;;;;;0.97;0.20;;;;;;;26.95;25.91;101350.72;4917397;28;97923;-60
2021/10/01 09:50:20;;;;;;;1.88;0.40;;;;;;;26.33;26.66;101353.03;4913408;28;98393;-59
2021/10/01 09:52:50;;;;;;;1.55;0.40;;;;;;;25.87;26.81;101349.78;4917468;28;98070;-60
2021/10/01 09:55:22;;;;;;;2.05;0.40;;;;;;;25.58;27.29;101357.16;4918244;28;98181;-60
2021/10/01 09:58:09;;;;;;;1.55;0.30;;;;;;;25.26;27.56;101339.63;4917486;28;98682;-60
2021/10/01 10:00:53;;;;;;;1.33;0.40;;;;;;;25.11;28.07;101338.38;4915714;28;99021;-63
2021/10/01 10:03:25;;;;;;;2.13;0.40;;;;;;;24.98;28.32;101343.03;4917719;28;98045;-60
2021/10/01 10:06:01;;;;;;;;;;;;;;;25.05;28.65;101334.22;4915245;28;98035;-62
2021/10/01 10:08:39;;;;;;;1.38;0.32;;;;;;;24.78;28.79;101343.94;4911008;28;120261;-60
2021/10/01 10:11:07;;;;;;;2.03;0.30;;;;;;;24.45;28.58;101344.00;4916230;28;98369;-62
2021/10/01 10:13:46;;;;;;;2.30;0.50;;;;;;;24.12;28.88;101338.47;4916314;28;100435;-60
2021/10/01 10:16:20;;;;;;;2.95;0.40;;;;;;;23.97;29.22;101337.97;4917759;28;97933;-60
2021/10/01 10:18:52;;;;;;;2.08;0.40;;;;;;;24.04;29.89;101339.34;4917569;28;100955;-60
2021/10/01 10:21:19;;;;;;;;;;;;;;;24.02;29.75;101341.66;4918112;28;98443;-63
2021/10/01 10:23:45;;;;;;;2.72;0.45;;;;;;;23.82;29.94;101337.75;4917127;28;118338;-60
2021/10/01 10:26:11;;;;;;;1.20;0.40;;;;;;;23.73;29.90;101335.06;4917681;28;97925;-63
2021/10/01 10:28:42;;;;;;;1.02;0.30;;;;;;;23.71;30.14;101329.09;4916257;28;126661;-63
2021/10/01 10:31:08;;;;;;;2.22;0.40;;;;;;;23.84;30.38;101322.50;4914729;28;98904;-63
2021/10/01 10:33:42;;;;;;;1.13;0.30;;;;;;;24.00;30.16;101328.19;4892806;28;98298;-62
2021/10/01 10:36:34;;;;;;;3.22;0.43;;;;;;;24.28;30.16;101313.84;4915988;28;98168;-60
2021/10/01 10:39:16;;;;;;;3.00;0.30;;;;;;;24.51;30.22;101308.78;4916564;28;99292;-62
2021/10/01 10:41:45;;;;;;;3.28;0.40;;;;;;;24.62;29.84;101310.75;4913071;28;98429;-63
2021/10/01 10:44:12;;;;;;;1.08;0.40;;;;;;;24.65;29.43;101306.50;4900033;28;98392;-60
2021/10/01 10:46:39;;;;;;;1.15;0.30;;;;;;;24.64;29.72;101302.13;4896728;28;106096;-61
2021/10/01 10:49:17;;;;;;;2.88;0.40;;;;;;;24.80;30.10;101299.50;4917992;28;97884;-62
2021/10/01 10:52:02;;;;;;;1.33;0.43;;;;;;;25.09;29.65;101298.47;4916601;28;98744;-62
2021/10/01 10:54:30;;;;;;;2.92;0.45;;;;;;;25.24;29.87;101297.00;4912397;28;98570;-62
2021/10/01 10:57:21;;;;;;;2.65;0.30;;;;;;;25.43;29.15;101294.44;4916304;28;98386;-60
2021/10/01 10:59:55;;;;;;;3.03;0.50;;;;;;;25.38;28.94;101287.19;4917118;28;98689;-61
2021/10/01 11:02:41;;;;;;;1.80;0.35;;;;;;;25.39;28.53;101286.06;4913918;28;99429;-61
2021/10/01 11:05:22;;;;;;;2.22;0.40;;;;;;;25.70;28.42;101284.56;4894421;28;98636;-60
2021/10/01 11:07:56;;;;;;;1.80;0.30;;;;;;;25.94;28.21;101280.97;4895878;28;97909;-63
2021/10/01 11:10:45;;;;;;;2.42;0.40;;;;;;;26.44;27.56;101271.22;4897867;28;98299;-63
2021/10/01 11:13:24;;;;;;;1.77;0.40;;;;;;;26.74;27.36;101268.84;4896799;28;98767;-60
2021/10/01 11:16:09;;;;;;;2.00;0.40;;;;;;;27.07;27.22;101262.09;4897228;28;98374;-61
2021/10/01 11:21:35;;;;;;;1.52;0.40;;;;;;;27.17;27.14;101258.81;4894108;28;99859;-63
2021/10/01 11:24:11;;;;;;;1.50;0.30;;;;;;;27.29;27.00;101241.28;4896406;28;97871;-60
2021/10/01 11:26:56;;;;;;;1.65;0.30;;;;;;;27.42;27.21;101246.31;4892813;28;98802;-63
2021/10/01 11:29:30;;;;;;;0.95;0.30;;;;;;;27.35;27.27;101240.66;4897949;28;97815;-63
2021/10/01 11:32:08;;;;;;;1.23;0.30;;;;;;;27.30;26.76;101238.16;4895330;28;99050;-63
2021/10/01 11:34:59;;;;;;;0.90;0.25;;;;;;;27.31;26.92;101238.94;4894398;28;111773;-63
2021/10/01 11:37:34;;;;;;;1.45;0.30;;;;;;;27.16;26.76;101230.34;4896421;28;120494;-64
2021/10/01 11:40:12;;;;;;;2.35;0.30;;;;;;;27.17;27.07;101231.16;4896017;28;109674;-61
2021/10/01 11:42:45;;;;;;;1.85;0.30;;;;;;;27.04;27.20;101222.16;4895134;28;107749;-61
2021/10/01 11:45:28;;;;;;;3.28;0.30;;;;;;;26.69;26.19;101230.44;4894517;28;98495;-61
2021/10/01 11:48:06;;;;;;;2.90;0.30;;;;;;;26.51;26.55;101216.16;4896000;28;116356;-63
2021/10/01 11:50:47;;;;;;;2.20;0.40;;;;;;;26.36;26.92;101208.66;4897726;28;98078;-65
2021/10/01 11:53:23;;;;;;;1.30;0.30;;;;;;;26.11;26.85;101205.25;4895485;28;118505;-63
2021/10/01 11:55:55;;;;;;;1.38;0.30;;;;;;;25.66;26.55;101214.66;4897765;28;98303;-61
2021/10/01 11:58:23;;;;;;;0.90;0.20;;;;;;;25.29;26.72;101202.97;4896633;28;97889;-61
2021/10/01 12:00:50;;;;;;;1.42;0.20;;;;;;;25.04;26.61;101199.44;4896554;28;97823;-63
2021/10/01 12:03:18;;;;;;;0.80;0.20;;;;;;;24.94;26.81;101184.97;4902518;28;112753;-63
2021/10/01 12:05:49;;;;;;;1.88;0.30;;;;;;;24.84;27.45;101179.16;4915555;28;98322;-61
2021/10/01 12:08:18;;;;;;;1.02;0.20;;;;;;;24.73;27.08;101184.31;4915875;28;98467;-60
2021/10/01 12:10:47;;;;;;;1.20;0.20;;;;;;;24.51;26.98;101190.28;4916562;28;97946;-63
2021/10/01 12:13:27;;;;;;;1.33;0.30;;;;;;;24.29;27.20;101181.31;4916048;28;98875;-61
2021/10/01 12:16:01;;;;;;;1.60;0.20;;;;;;;24.16;27.52;101177.72;4913558;28;111412;-60
2021/10/01 12:18:34;;;;;;;1.67;0.20;;;;;;;24.08;27.56;101169.56;4918753;28;98657;-61
2021/10/01 12:21:16;;;;;;;1.40;0.22;;;;;;;24.04;27.76;101163.94;4919731;28;97999;-61
2021/10/01 12:23:45;;;;;;;1.13;0.20;;;;;;;23.99;27.08;101158.66;4915485;28;98459;-63
2021/10/01 12:26:38;;;;;;;1.38;0.20;;;;;;;23.90;27.49;101155.22;4918997;28;106470;-62
2021/10/01 12:29:11;;;;;;;0.88;0.20;;;;;;;23.73;27.69;101156.19;4918822;28;98318;-60
2021/10/01 12:31:48;;;;;;;0.88;0.20;;;;;;;23.66;28.21;101148.50;4913576;28;99698;-61
2021/10/01 12:34:22;;;;;;;0.88;0.20;;;;;;;23.50;28.15;101147.47;4911494;28;99105;-61
2021/10/01 12:36:52;;;;;;;1.60;0.20;;;;;;;23.36;28.12;101144.22;4912619;28;98840;-60
2021/10/01 12:39:18;;;;;;;1.85;0.20;;;;;;;23.25;28.57;101141.09;4900194;28;98131;-61
2021/10/01 12:41:44;;;;;;;4.88;0.20;;;;;;;23.16;28.51;101145.88;4901181;28;98496;-63
2021/10/01 12:44:14;;;;;;;1.15;0.22;;;;;;;22.98;28.37;101134.97;4919103;28;98870;-60
2021/10/01 12:46:43;;;;;;;1.02;0.20;;;;;;;22.92;28.58;101128.09;4917993;28;117778;-63
2021/10/01 12:49:23;;;;;;;1.30;0.20;;;;;;;22.88;28.74;101129.06;4918291;28;98110;-60
2021/10/01 12:52:22;;;;;;;1.63;0.30;;;;;;;22.68;29.28;101127.91;4919412;28;98417;-60
2021/10/01 12:54:59;;;;;;;1.05;0.20;;;;;;;22.35;29.82;101119.53;4918848;28;98203;-61
2021/10/01 12:57:32;;;;;;;3.70;0.30;;;;;;;22.05;29.34;101125.78;4920076;28;98607;-60
2021/10/01 13:00:04;;;;;;;1.80;0.40;;;;;;;22.00;29.86;101119.66;4917919;28;98728;-64
2021/10/01 13:02:44;;;;;;;1.13;0.30;;;;;;;22.00;30.19;101109.47;4919344;28;98029;-60
2021/10/01 13:05:33;;;;;;;3.53;0.40;;;;;;;22.00;29.89;101105.94;4902250;28;98743;-62
2021/10/01 13:07:59;;;;;;;1.48;0.30;;;;;;;21.90;30.04;101106.31;4919079;28;98660;-60
2021/10/01 13:10:29;;;;;;;1.30;0.30;;;;;;;21.81;30.67;101109.06;4918771;28;99154;-62
2021/10/01 13:13:02;;;;;;;1.80;0.30;;;;;;;21.78;30.65;101109.72;4918827;28;98089;-60